sensor_id;sensor_type;location;lat;lon;timestamp;pressure;altitude;pressure_sealevel;temperature;humidity
16777;BME280;8505;49.456;8.164;2023-02-23T00:01:24;99398.81;;;11.17;83.88
16777;BME280;8505;49.456;8.164;2023-02-23T00:03:54;99403.00;;;11.11;84.31
16777;BME280;8505;49.456;8.164;2023-02-23T00:06:24;99391.94;;;10.78;84.87
16777;BME280;8505;49.456;8.164;2023-02-23T00:08:52;99391.94;;;10.78;86.01
16777;BME280;8505;49.456;8.164;2023-02-23T00:11:21;99394.22;;;10.81;86.17
16777;BME280;8505;49.456;8.164;2023-02-23T00:13:49;99396.16;;;10.87;85.49
16777;BME280;8505;49.456;8.164;2023-02-23T00:16:20;99383.16;;;10.92;85.69
16777;BME280;8505;49.456;8.164;2023-02-23T00:18:49;99391.03;;;11.01;85.61
16777;BME280;8505;49.456;8.164;2023-02-23T00:21:21;99386.56;;;11.01;84.84
16777;BME280;8505;49.456;8.164;2023-02-23T00:23:51;99385.81;;;10.92;85.46
16777;BME280;8505;49.456;8.164;2023-02-23T00:26:23;99387.84;;;10.90;85.05
16777;BME280;8505;49.456;8.164;2023-02-23T00:28:52;99376.50;;;10.82;85.49
16777;BME280;8505;49.456;8.164;2023-02-23T00:31:22;99382.53;;;10.76;86.10
16777;BME280;8505;49.456;8.164;2023-02-23T00:33:51;99386.66;;;10.93;85.09
16777;BME280;8505;49.456;8.164;2023-02-23T00:36:22;99384.94;;;10.85;85.04
16777;BME280;8505;49.456;8.164;2023-02-23T00:38:52;99375.03;;;10.94;85.46
16777;BME280;8505;49.456;8.164;2023-02-23T00:41:20;99384.19;;;11.06;84.65
16777;BME280;8505;49.456;8.164;2023-02-23T00:43:50;99379.53;;;10.79;84.85
16777;BME280;8505;49.456;8.164;2023-02-23T00:46:22;99374.13;;;11.02;84.79
16777;BME280;8505;49.456;8.164;2023-02-23T00:48:53;99373.78;;;10.90;84.74
16777;BME280;8505;49.456;8.164;2023-02-23T00:51:25;99387.66;;;10.92;84.58
16777;BME280;8505;49.456;8.164;2023-02-23T00:53:57;99383.25;;;10.70;85.76
16777;BME280;8505;49.456;8.164;2023-02-23T00:56:26;99376.41;;;10.75;85.72
16777;BME280;8505;49.456;8.164;2023-02-23T00:58:54;99377.50;;;10.81;84.94
16777;BME280;8505;49.456;8.164;2023-02-23T01:01:23;99388.38;;;10.71;85.64
16777;BME280;8505;49.456;8.164;2023-02-23T01:03:51;99375.31;;;10.55;86.73
16777;BME280;8505;49.456;8.164;2023-02-23T01:06:19;99383.31;;;10.62;86.15
16777;BME280;8505;49.456;8.164;2023-02-23T01:08:49;99388.31;;;10.42;86.67
16777;BME280;8505;49.456;8.164;2023-02-23T01:11:21;99381.44;;;10.33;86.93
16777;BME280;8505;49.456;8.164;2023-02-23T01:13:52;99386.19;;;10.60;86.73
16777;BME280;8505;49.456;8.164;2023-02-23T01:16:22;99382.44;;;10.69;85.42
16777;BME280;8505;49.456;8.164;2023-02-23T01:18:54;99382.53;;;10.76;85.16
16777;BME280;8505;49.456;8.164;2023-02-23T01:21:25;99381.94;;;10.51;86.02
16777;BME280;8505;49.456;8.164;2023-02-23T01:23:55;99384.06;;;10.18;86.62
16777;BME280;8505;49.456;8.164;2023-02-23T01:26:25;99379.09;;;10.15;87.55
16777;BME280;8505;49.456;8.164;2023-02-23T01:28:54;99379.44;;;10.35;87.27
16777;BME280;8505;49.456;8.164;2023-02-23T01:31:23;99379.13;;;10.52;86.49
16777;BME280;8505;49.456;8.164;2023-02-23T01:33:52;99377.03;;;10.48;86.36
16777;BME280;8505;49.456;8.164;2023-02-23T01:36:20;99377.25;;;10.38;87.45
16777;BME280;8505;49.456;8.164;2023-02-23T01:38:48;99381.06;;;10.59;86.86
16777;BME280;8505;49.456;8.164;2023-02-23T01:41:17;99381.59;;;10.54;87.47
16777;BME280;8505;49.456;8.164;2023-02-23T01:43:56;99374.72;;;10.45;88.06
16777;BME280;8505;49.456;8.164;2023-02-23T01:46:24;99376.13;;;10.70;86.91
16777;BME280;8505;49.456;8.164;2023-02-23T01:48:54;99368.28;;;10.77;85.56
16777;BME280;8505;49.456;8.164;2023-02-23T01:51:24;99364.00;;;10.76;85.88
16777;BME280;8505;49.456;8.164;2023-02-23T01:53:57;99368.47;;;10.75;85.86
16777;BME280;8505;49.456;8.164;2023-02-23T01:56:31;99370.38;;;10.67;85.89
16777;BME280;8505;49.456;8.164;2023-02-23T01:59:03;99377.56;;;10.58;85.92
16777;BME280;8505;49.456;8.164;2023-02-23T02:01:32;99370.13;;;10.39;87.36
16777;BME280;8505;49.456;8.164;2023-02-23T02:04:01;99366.16;;;10.43;87.85
16777;BME280;8505;49.456;8.164;2023-02-23T02:06:33;99366.53;;;10.69;86.09
16777;BME280;8505;49.456;8.164;2023-02-23T02:09:06;99360.41;;;10.69;85.67
16777;BME280;8505;49.456;8.164;2023-02-23T02:11:37;99366.94;;;10.43;86.78
16777;BME280;8505;49.456;8.164;2023-02-23T02:14:13;99370.84;;;10.33;87.95
16777;BME280;8505;49.456;8.164;2023-02-23T02:16:55;99363.22;;;10.15;88.50
16777;BME280;8505;49.456;8.164;2023-02-23T02:19:58;99362.97;;;10.02;89.31
16777;BME280;8505;49.456;8.164;2023-02-23T02:22:57;99362.41;;;9.92;90.12
16777;BME280;8505;49.456;8.164;2023-02-23T02:25:40;99362.75;;;9.89;90.55
16777;BME280;8505;49.456;8.164;2023-02-23T02:28:28;99360.59;;;9.92;90.80
16777;BME280;8505;49.456;8.164;2023-02-23T02:31:32;99357.34;;;10.05;90.02
16777;BME280;8505;49.456;8.164;2023-02-23T02:37:27;99351.81;;;9.92;90.48
16777;BME280;8505;49.456;8.164;2023-02-23T02:40:05;99345.34;;;9.94;90.54
16777;BME280;8505;49.456;8.164;2023-02-23T02:42:49;99344.06;;;9.90;90.64
16777;BME280;8505;49.456;8.164;2023-02-23T02:45:25;99350.22;;;9.83;90.71
16777;BME280;8505;49.456;8.164;2023-02-23T02:47:57;99351.53;;;9.87;90.82
16777;BME280;8505;49.456;8.164;2023-02-23T02:50:37;99351.41;;;9.80;91.28
16777;BME280;8505;49.456;8.164;2023-02-23T02:53:10;99355.00;;;9.87;91.13
16777;BME280;8505;49.456;8.164;2023-02-23T02:55:42;99342.22;;;9.91;90.95
16777;BME280;8505;49.456;8.164;2023-02-23T02:58:14;99349.47;;;9.74;91.96
16777;BME280;8505;49.456;8.164;2023-02-23T03:00:45;99344.88;;;9.91;90.61
16777;BME280;8505;49.456;8.164;2023-02-23T03:03:33;99340.53;;;9.98;90.43
16777;BME280;8505;49.456;8.164;2023-02-23T03:06:21;99339.59;;;9.91;90.36
16777;BME280;8505;49.456;8.164;2023-02-23T03:09:19;99337.22;;;9.96;90.30
16777;BME280;8505;49.456;8.164;2023-02-23T03:12:17;99341.34;;;9.75;91.37
16777;BME280;8505;49.456;8.164;2023-02-23T03:15:23;99341.72;;;9.72;92.30
16777;BME280;8505;49.456;8.164;2023-02-23T03:18:24;99343.13;;;10.06;90.23
16777;BME280;8505;49.456;8.164;2023-02-23T03:21:20;99338.81;;;10.05;90.07
16777;BME280;8505;49.456;8.164;2023-02-23T03:24:10;99341.94;;;9.86;91.17
16777;BME280;8505;49.456;8.164;2023-02-23T03:27:04;99346.22;;;9.64;91.18
16777;BME280;8505;49.456;8.164;2023-02-23T03:29:54;99348.72;;;9.57;92.49
16777;BME280;8505;49.456;8.164;2023-02-23T03:32:47;99343.91;;;10.06;91.21
16777;BME280;8505;49.456;8.164;2023-02-23T03:35:39;99342.59;;;10.10;90.53
16777;BME280;8505;49.456;8.164;2023-02-23T03:38:31;99337.22;;;10.41;88.11
16777;BME280;8505;49.456;8.164;2023-02-23T03:41:21;99347.88;;;10.33;88.64
16777;BME280;8505;49.456;8.164;2023-02-23T03:44:12;99341.34;;;10.21;87.72
16777;BME280;8505;49.456;8.164;2023-02-23T03:47:00;99340.00;;;10.25;88.57
16777;BME280;8505;49.456;8.164;2023-02-23T03:49:48;99351.59;;;10.24;88.44
16777;BME280;8505;49.456;8.164;2023-02-23T03:52:40;99344.03;;;10.13;89.08
16777;BME280;8505;49.456;8.164;2023-02-23T03:55:30;99341.22;;;10.14;89.22
16777;BME280;8505;49.456;8.164;2023-02-23T03:58:20;99339.91;;;10.33;87.92
16777;BME280;8505;49.456;8.164;2023-02-23T04:01:09;99353.81;;;10.35;88.45
16777;BME280;8505;49.456;8.164;2023-02-23T04:03:56;99348.06;;;10.46;87.62
16777;BME280;8505;49.456;8.164;2023-02-23T04:06:45;99348.91;;;10.47;87.31
16777;BME280;8505;49.456;8.164;2023-02-23T04:09:31;99352.97;;;10.35;87.36
16777;BME280;8505;49.456;8.164;2023-02-23T04:12:21;99352.78;;;10.22;88.63
16777;BME280;8505;49.456;8.164;2023-02-23T04:15:12;99352.16;;;10.11;89.51
16777;BME280;8505;49.456;8.164;2023-02-23T04:17:42;99355.44;;;10.13;89.56
16777;BME280;8505;49.456;8.164;2023-02-23T04:20:11;99349.47;;;9.97;89.91
16777;BME280;8505;49.456;8.164;2023-02-23T04:22:40;99348.41;;;9.83;90.77
16777;BME280;8505;49.456;8.164;2023-02-23T04:25:08;99351.41;;;9.80;91.19
16777;BME280;8505;49.456;8.164;2023-02-23T04:27:37;99357.53;;;9.81;91.31
16777;BME280;8505;49.456;8.164;2023-02-23T04:30:06;99355.91;;;9.71;91.91
16777;BME280;8505;49.456;8.164;2023-02-23T04:32:37;99360.56;;;9.69;91.77
16777;BME280;8505;49.456;8.164;2023-02-23T04:35:08;99356.66;;;9.57;92.46
16777;BME280;8505;49.456;8.164;2023-02-23T04:37:35;99356.66;;;9.57;92.69
16777;BME280;8505;49.456;8.164;2023-02-23T04:40:05;99354.34;;;9.62;92.87
16777;BME280;8505;49.456;8.164;2023-02-23T04:42:32;99360.25;;;9.64;92.61
16777;BME280;8505;49.456;8.164;2023-02-23T04:45:00;99359.31;;;9.57;93.02
16777;BME280;8505;49.456;8.164;2023-02-23T04:47:28;99359.66;;;9.54;93.04
16777;BME280;8505;49.456;8.164;2023-02-23T04:49:55;99368.25;;;9.56;93.29
16777;BME280;8505;49.456;8.164;2023-02-23T04:52:24;99366.03;;;9.68;93.14
16777;BME280;8505;49.456;8.164;2023-02-23T04:54:52;99366.03;;;9.68;92.34
16777;BME280;8505;49.456;8.164;2023-02-23T04:57:19;99364.38;;;9.67;92.58
16777;BME280;8505;49.456;8.164;2023-02-23T04:59:47;99369.72;;;9.59;92.49
16777;BME280;8505;49.456;8.164;2023-02-23T05:02:15;99372.84;;;9.62;93.02
16777;BME280;8505;49.456;8.164;2023-02-23T05:04:42;99370.00;;;9.64;92.89
16777;BME280;8505;49.456;8.164;2023-02-23T05:07:10;99374.25;;;9.50;92.96
16777;BME280;8505;49.456;8.164;2023-02-23T05:09:39;99370.78;;;9.50;93.42
16777;BME280;8505;49.456;8.164;2023-02-23T05:12:07;99370.25;;;9.54;93.61
16777;BME280;8505;49.456;8.164;2023-02-23T05:14:35;99367.72;;;9.61;93.05
16777;BME280;8505;49.456;8.164;2023-02-23T05:17:02;99364.91;;;9.62;92.64
16777;BME280;8505;49.456;8.164;2023-02-23T05:19:32;99368.84;;;9.66;93.18
16777;BME280;8505;49.456;8.164;2023-02-23T05:21:59;99363.84;;;9.71;92.58
16777;BME280;8505;49.456;8.164;2023-02-23T05:24:27;99371.31;;;9.68;92.44
16777;BME280;8505;49.456;8.164;2023-02-23T05:26:56;99361.91;;;9.65;92.82
16777;BME280;8505;49.456;8.164;2023-02-23T05:29:24;99372.47;;;9.65;92.62
16777;BME280;8505;49.456;8.164;2023-02-23T05:31:51;99360.81;;;9.52;93.13
16777;BME280;8505;49.456;8.164;2023-02-23T05:34:19;99366.53;;;9.63;93.76
16777;BME280;8505;49.456;8.164;2023-02-23T05:36:47;99367.06;;;9.82;92.78
16777;BME280;8505;49.456;8.164;2023-02-23T05:39:14;99362.44;;;9.84;92.48
16777;BME280;8505;49.456;8.164;2023-02-23T05:41:42;99364.25;;;9.83;91.75
16777;BME280;8505;49.456;8.164;2023-02-23T05:44:11;99366.63;;;9.78;91.82
16777;BME280;8505;49.456;8.164;2023-02-23T05:46:39;99368.44;;;9.78;91.89
16777;BME280;8505;49.456;8.164;2023-02-23T05:49:07;99370.25;;;9.54;91.73
16777;BME280;8505;49.456;8.164;2023-02-23T05:51:37;99370.53;;;9.82;92.41
16777;BME280;8505;49.456;8.164;2023-02-23T05:54:06;99369.38;;;9.85;91.58
16777;BME280;8505;49.456;8.164;2023-02-23T05:56:33;99369.09;;;9.80;91.75
16777;BME280;8505;49.456;8.164;2023-02-23T05:59:02;99355.91;;;9.71;92.18
16777;BME280;8505;49.456;8.164;2023-02-23T06:01:31;99367.19;;;9.65;92.29
16777;BME280;8505;49.456;8.164;2023-02-23T06:03:59;99367.66;;;9.69;92.33
16777;BME280;8505;49.456;8.164;2023-02-23T06:06:26;99365.41;;;9.58;92.96
16777;BME280;8505;49.456;8.164;2023-02-23T06:08:54;99366.19;;;9.66;93.04
16777;BME280;8505;49.456;8.164;2023-02-23T06:11:22;99376.28;;;9.63;93.12
16777;BME280;8505;49.456;8.164;2023-02-23T06:13:49;99373.47;;;9.64;92.84
16777;BME280;8505;49.456;8.164;2023-02-23T06:16:17;99373.13;;;9.67;93.21
16777;BME280;8505;49.456;8.164;2023-02-23T06:18:47;99374.25;;;9.73;92.43
16777;BME280;8505;49.456;8.164;2023-02-23T06:21:15;99377.56;;;9.75;92.32
16777;BME280;8505;49.456;8.164;2023-02-23T06:23:43;99378.84;;;9.79;92.68
16777;BME280;8505;49.456;8.164;2023-02-23T06:26:11;99376.47;;;9.61;93.70
16777;BME280;8505;49.456;8.164;2023-02-23T06:28:38;99389.47;;;9.94;92.76
16777;BME280;8505;49.456;8.164;2023-02-23T06:31:06;99393.97;;;9.93;92.68
16777;BME280;8505;49.456;8.164;2023-02-23T06:33:34;99392.50;;;9.91;90.41
16777;BME280;8505;49.456;8.164;2023-02-23T06:36:03;99387.78;;;10.01;92.36
16777;BME280;8505;49.456;8.164;2023-02-23T06:38:31;99396.38;;;9.80;92.68
16777;BME280;8505;49.456;8.164;2023-02-23T06:40:58;99393.44;;;9.75;93.93
16777;BME280;8505;49.456;8.164;2023-02-23T06:43:26;99401.25;;;9.91;93.97
16777;BME280;8505;49.456;8.164;2023-02-23T06:45:54;99402.81;;;9.78;92.04
16777;BME280;8505;49.456;8.164;2023-02-23T06:48:22;99400.84;;;10.02;92.44
16777;BME280;8505;49.456;8.164;2023-02-23T06:50:50;99407.81;;;9.72;91.83
16777;BME280;8505;49.456;8.164;2023-02-23T06:53:19;99400.13;;;10.31;89.71
16777;BME280;8505;49.456;8.164;2023-02-23T06:55:48;99406.91;;;10.34;89.00
16777;BME280;8505;49.456;8.164;2023-02-23T06:58:16;99417.56;;;10.26;89.19
16777;BME280;8505;49.456;8.164;2023-02-23T07:00:44;99414.50;;;10.37;88.67
16777;BME280;8505;49.456;8.164;2023-02-23T07:03:11;99413.84;;;10.35;88.50
16777;BME280;8505;49.456;8.164;2023-02-23T07:05:39;99426.97;;;10.28;88.87
16777;BME280;8505;49.456;8.164;2023-02-23T07:08:07;99419.75;;;10.14;89.51
16777;BME280;8505;49.456;8.164;2023-02-23T07:10:36;99430.88;;;10.18;89.62
16777;BME280;8505;49.456;8.164;2023-02-23T07:13:03;99433.81;;;10.14;89.10
16777;BME280;8505;49.456;8.164;2023-02-23T07:15:31;99430.59;;;10.04;90.76
16777;BME280;8505;49.456;8.164;2023-02-23T07:17:59;99444.72;;;10.20;92.35
16777;BME280;8505;49.456;8.164;2023-02-23T07:20:27;99435.38;;;10.54;91.24
16777;BME280;8505;49.456;8.164;2023-02-23T07:22:54;99437.75;;;10.64;89.30
16777;BME280;8505;49.456;8.164;2023-02-23T07:25:22;99443.53;;;10.45;89.71
16777;BME280;8505;49.456;8.164;2023-02-23T07:27:51;99443.25;;;10.40;88.49
16777;BME280;8505;49.456;8.164;2023-02-23T07:30:20;99442.91;;;9.89;91.13
16777;BME280;8505;49.456;8.164;2023-02-23T07:32:49;99453.34;;;10.13;91.88
16777;BME280;8505;49.456;8.164;2023-02-23T07:35:17;99448.75;;;10.76;88.18
16777;BME280;8505;49.456;8.164;2023-02-23T07:37:45;99447.84;;;10.46;88.75
16777;BME280;8505;49.456;8.164;2023-02-23T07:40:13;99449.13;;;10.50;89.53
16777;BME280;8505;49.456;8.164;2023-02-23T07:42:41;99445.38;;;10.82;89.06
16777;BME280;8505;49.456;8.164;2023-02-23T07:45:11;99445.00;;;10.70;85.18
16777;BME280;8505;49.456;8.164;2023-02-23T07:47:39;99459.50;;;10.37;88.49
16777;BME280;8505;49.456;8.164;2023-02-23T07:50:07;99450.94;;;10.72;87.52
16777;BME280;8505;49.456;8.164;2023-02-23T07:52:36;99455.25;;;10.88;87.26
16777;BME280;8505;49.456;8.164;2023-02-23T07:55:04;99447.56;;;10.93;86.88
16777;BME280;8505;49.456;8.164;2023-02-23T07:57:32;99450.84;;;10.80;85.27
16777;BME280;8505;49.456;8.164;2023-02-23T08:00:00;99456.09;;;11.18;83.17
16777;BME280;8505;49.456;8.164;2023-02-23T08:02:29;99456.09;;;11.18;84.07
16777;BME280;8505;49.456;8.164;2023-02-23T08:04:58;99454.53;;;11.23;82.80
16777;BME280;8505;49.456;8.164;2023-02-23T08:07:25;99453.72;;;11.08;83.11
16777;BME280;8505;49.456;8.164;2023-02-23T08:09:53;99462.84;;;10.91;83.65
16777;BME280;8505;49.456;8.164;2023-02-23T08:12:20;99454.19;;;10.97;83.01
16777;BME280;8505;49.456;8.164;2023-02-23T08:14:48;99447.56;;;10.93;82.50
16777;BME280;8505;49.456;8.164;2023-02-23T08:17:15;99462.38;;;10.87;82.03
16777;BME280;8505;49.456;8.164;2023-02-23T08:19:44;99456.03;;;11.26;81.99
16777;BME280;8505;49.456;8.164;2023-02-23T08:22:12;99466.06;;;11.60;78.78
16777;BME280;8505;49.456;8.164;2023-02-23T08:24:40;99464.06;;;11.77;77.88
16777;BME280;8505;49.456;8.164;2023-02-23T08:27:07;99469.09;;;11.57;78.30
16777;BME280;8505;49.456;8.164;2023-02-23T08:29:35;99465.34;;;11.36;79.01
16777;BME280;8505;49.456;8.164;2023-02-23T08:32:03;99468.19;;;11.20;79.20
16777;BME280;8505;49.456;8.164;2023-02-23T08:34:31;99472.72;;;11.12;79.29
16777;BME280;8505;49.456;8.164;2023-02-23T08:37:00;99474.75;;;11.10;79.76
16777;BME280;8505;49.456;8.164;2023-02-23T08:39:28;99469.91;;;11.13;79.32
16777;BME280;8505;49.456;8.164;2023-02-23T08:41:56;99473.81;;;11.03;79.35
16777;BME280;8505;49.456;8.164;2023-02-23T08:44:23;99475.22;;;11.28;79.66
16777;BME280;8505;49.456;8.164;2023-02-23T08:46:51;99473.41;;;11.28;79.13
16777;BME280;8505;49.456;8.164;2023-02-23T08:49:21;99475.59;;;11.40;77.98
16777;BME280;8505;49.456;8.164;2023-02-23T08:51:49;99470.28;;;11.40;77.57
16777;BME280;8505;49.456;8.164;2023-02-23T08:54:18;99468.00;;;11.36;77.62
16777;BME280;8505;49.456;8.164;2023-02-23T08:56:45;99468.44;;;11.55;77.68
16777;BME280;8505;49.456;8.164;2023-02-23T08:59:13;99477.75;;;11.80;76.47
16777;BME280;8505;49.456;8.164;2023-02-23T09:01:41;99473.44;;;11.94;74.35
16777;BME280;8505;49.456;8.164;2023-02-23T09:04:09;99477.34;;;12.12;74.03
16777;BME280;8505;49.456;8.164;2023-02-23T09:06:37;99480.09;;;12.04;73.62
16777;BME280;8505;49.456;8.164;2023-02-23T09:09:04;99478.34;;;11.75;74.75
16777;BME280;8505;49.456;8.164;2023-02-23T09:11:33;99479.78;;;11.49;75.46
16777;BME280;8505;49.456;8.164;2023-02-23T09:14:01;99482.25;;;11.65;75.39
16777;BME280;8505;49.456;8.164;2023-02-23T09:16:29;99478.84;;;12.00;73.84
16777;BME280;8505;49.456;8.164;2023-02-23T09:18:57;99474.56;;;12.21;72.90
16777;BME280;8505;49.456;8.164;2023-02-23T09:21:26;99490.44;;;12.56;70.92
16777;BME280;8505;49.456;8.164;2023-02-23T09:23:55;99491.72;;;12.39;71.81
16777;BME280;8505;49.456;8.164;2023-02-23T09:26:23;99485.50;;;12.53;70.90
16777;BME280;8505;49.456;8.164;2023-02-23T09:28:57;99483.78;;;12.67;70.09
16777;BME280;8505;49.456;8.164;2023-02-23T09:31:25;99481.66;;;13.26;68.31
16777;BME280;8505;49.456;8.164;2023-02-23T09:33:53;99478.25;;;13.46;67.09
16777;BME280;8505;49.456;8.164;2023-02-23T09:36:22;99483.63;;;13.52;67.03
16777;BME280;8505;49.456;8.164;2023-02-23T09:38:52;99490.91;;;13.78;65.67
16777;BME280;8505;49.456;8.164;2023-02-23T09:41:59;99482.63;;;14.07;64.54
16777;BME280;8505;49.456;8.164;2023-02-23T09:44:43;99491.38;;;14.42;63.74
16777;BME280;8505;49.456;8.164;2023-02-23T09:47:25;99485.84;;;14.37;63.34
16777;BME280;8505;49.456;8.164;2023-02-23T09:49:56;99488.06;;;13.80;65.32
16777;BME280;8505;49.456;8.164;2023-02-23T09:52:37;99483.16;;;13.42;66.07
16777;BME280;8505;49.456;8.164;2023-02-23T09:55:09;99483.56;;;13.39;66.06
16777;BME280;8505;49.456;8.164;2023-02-23T09:57:43;99481.06;;;13.72;65.58
16777;BME280;8505;49.456;8.164;2023-02-23T10:00:17;99479.94;;;13.94;64.95
16777;BME280;8505;49.456;8.164;2023-02-23T10:03:10;99482.56;;;14.81;62.17
16777;BME280;8505;49.456;8.164;2023-02-23T10:05:43;99485.63;;;14.58;62.09
16777;BME280;8505;49.456;8.164;2023-02-23T10:08:19;99490.78;;;14.67;60.21
16777;BME280;8505;49.456;8.164;2023-02-23T10:10:56;99490.38;;;15.09;60.16
16777;BME280;8505;49.456;8.164;2023-02-23T10:13:32;99489.09;;;15.58;58.48
16777;BME280;8505;49.456;8.164;2023-02-23T10:16:12;99495.41;;;16.21;57.25
16777;BME280;8505;49.456;8.164;2023-02-23T10:18:48;99485.09;;;17.37;53.75
16777;BME280;8505;49.456;8.164;2023-02-23T10:21:22;99487.84;;;16.11;56.72
16777;BME280;8505;49.456;8.164;2023-02-23T10:23:59;99490.06;;;16.21;55.84
16777;BME280;8505;49.456;8.164;2023-02-23T10:26:48;99500.91;;;16.95;54.83
16777;BME280;8505;49.456;8.164;2023-02-23T10:29:22;99496.41;;;16.65;54.57
16777;BME280;8505;49.456;8.164;2023-02-23T10:31:56;99495.88;;;16.43;54.46
16777;BME280;8505;49.456;8.164;2023-02-23T10:34:26;99504.19;;;17.40;52.48
16777;BME280;8505;49.456;8.164;2023-02-23T10:36:58;99495.72;;;17.44;52.66
16777;BME280;8505;49.456;8.164;2023-02-23T10:39:28;99502.41;;;16.60;55.08
16777;BME280;8505;49.456;8.164;2023-02-23T10:41:58;99509.63;;;16.60;54.91
16777;BME280;8505;49.456;8.164;2023-02-23T10:44:28;99504.44;;;16.58;54.36
16777;BME280;8505;49.456;8.164;2023-02-23T10:47:00;99506.09;;;16.59;54.94
16777;BME280;8505;49.456;8.164;2023-02-23T10:49:37;99501.78;;;16.89;54.13
16777;BME280;8505;49.456;8.164;2023-02-23T10:52:09;99505.31;;;16.52;54.41
16777;BME280;8505;49.456;8.164;2023-02-23T10:54:41;99493.69;;;16.33;55.47
16777;BME280;8505;49.456;8.164;2023-02-23T10:57:20;99503.06;;;15.60;57.03
16777;BME280;8505;49.456;8.164;2023-02-23T10:59:59;99506.47;;;14.35;60.72
16777;BME280;8505;49.456;8.164;2023-02-23T11:02:29;99498.09;;;14.38;61.96
16777;BME280;8505;49.456;8.164;2023-02-23T11:04:59;99499.69;;;14.26;63.11
16777;BME280;8505;49.456;8.164;2023-02-23T11:07:29;99494.75;;;14.16;63.29
16777;BME280;8505;49.456;8.164;2023-02-23T11:09:58;99506.56;;;13.94;63.60
16777;BME280;8505;49.456;8.164;2023-02-23T11:12:35;99502.09;;;13.60;64.06
16777;BME280;8505;49.456;8.164;2023-02-23T11:15:25;99500.47;;;14.07;63.22
16777;BME280;8505;49.456;8.164;2023-02-23T11:18:20;99498.28;;;13.76;63.81
16777;BME280;8505;49.456;8.164;2023-02-23T11:20:48;99497.94;;;13.92;63.20
16777;BME280;8505;49.456;8.164;2023-02-23T11:23:21;99498.22;;;14.17;62.75
16777;BME280;8505;49.456;8.164;2023-02-23T11:25:51;99498.47;;;14.29;62.37
16777;BME280;8505;49.456;8.164;2023-02-23T11:28:25;99496.91;;;15.26;59.94
16777;BME280;8505;49.456;8.164;2023-02-23T11:30:56;99491.56;;;16.10;56.36
16777;BME280;8505;49.456;8.164;2023-02-23T11:33:31;99476.66;;;16.28;56.24
16777;BME280;8505;49.456;8.164;2023-02-23T11:36:14;99480.63;;;16.50;55.39
16777;BME280;8505;49.456;8.164;2023-02-23T11:38:44;99482.63;;;15.85;55.91
16777;BME280;8505;49.456;8.164;2023-02-23T11:41:21;99482.75;;;15.32;57.63
16777;BME280;8505;49.456;8.164;2023-02-23T11:43:50;99483.19;;;15.16;58.34
16777;BME280;8505;49.456;8.164;2023-02-23T11:46:20;99479.72;;;14.89;59.28
16777;BME280;8505;49.456;8.164;2023-02-23T11:48:52;99480.13;;;14.80;59.80
16777;BME280;8505;49.456;8.164;2023-02-23T11:51:26;99477.63;;;14.45;59.74
16777;BME280;8505;49.456;8.164;2023-02-23T11:53:55;99477.84;;;14.57;60.46
16777;BME280;8505;49.456;8.164;2023-02-23T11:56:25;99469.84;;;15.10;59.26
16777;BME280;8505;49.456;8.164;2023-02-23T11:58:56;99470.69;;;15.10;59.34
16777;BME280;8505;49.456;8.164;2023-02-23T12:01:41;99465.25;;;15.63;57.99
16777;BME280;8505;49.456;8.164;2023-02-23T12:04:25;99459.16;;;15.23;58.10
16777;BME280;8505;49.456;8.164;2023-02-23T12:07:18;99462.13;;;15.79;57.00
16777;BME280;8505;49.456;8.164;2023-02-23T12:09:55;99461.00;;;15.35;58.17
16777;BME280;8505;49.456;8.164;2023-02-23T12:12:26;99451.38;;;15.08;57.75
16777;BME280;8505;49.456;8.164;2023-02-23T12:14:59;99452.81;;;15.30;56.44
16777;BME280;8505;49.456;8.164;2023-02-23T12:17:34;99460.16;;;15.35;56.16
16777;BME280;8505;49.456;8.164;2023-02-23T12:20:13;99455.84;;;15.34;56.87
16777;BME280;8505;49.456;8.164;2023-02-23T12:22:45;99453.66;;;14.98;57.90
16777;BME280;8505;49.456;8.164;2023-02-23T12:25:20;99457.16;;;14.85;58.83
16777;BME280;8505;49.456;8.164;2023-02-23T12:27:53;99457.53;;;15.09;57.99
16777;BME280;8505;49.456;8.164;2023-02-23T12:30:41;99457.97;;;14.99;58.39
16777;BME280;8505;49.456;8.164;2023-02-23T12:33:12;99447.91;;;14.94;58.67
16777;BME280;8505;49.456;8.164;2023-02-23T12:35:50;99438.69;;;15.04;57.48
16777;BME280;8505;49.456;8.164;2023-02-23T12:38:25;99443.63;;;14.87;58.39
16777;BME280;8505;49.456;8.164;2023-02-23T12:41:03;99441.97;;;14.99;58.54
16777;BME280;8505;49.456;8.164;2023-02-23T12:43:38;99441.97;;;14.99;58.21
16777;BME280;8505;49.456;8.164;2023-02-23T12:46:17;99439.50;;;15.17;57.16
16777;BME280;8505;49.456;8.164;2023-02-23T12:48:56;99442.75;;;15.13;58.18
16777;BME280;8505;49.456;8.164;2023-02-23T12:51:32;99440.72;;;15.15;58.21
16777;BME280;8505;49.456;8.164;2023-02-23T12:54:01;99439.31;;;14.73;58.93
16777;BME280;8505;49.456;8.164;2023-02-23T12:56:34;99434.19;;;14.97;58.70
16777;BME280;8505;49.456;8.164;2023-02-23T12:59:19;99432.09;;;15.06;59.41
16777;BME280;8505;49.456;8.164;2023-02-23T13:01:53;99435.41;;;14.95;58.98
16777;BME280;8505;49.456;8.164;2023-02-23T13:04:43;99432.56;;;14.44;60.39
16777;BME280;8505;49.456;8.164;2023-02-23T13:07:21;99430.06;;;14.82;59.80
16777;BME280;8505;49.456;8.164;2023-02-23T13:09:57;99429.06;;;14.63;59.84
16777;BME280;8505;49.456;8.164;2023-02-23T13:12:40;99428.03;;;14.84;58.80
16777;BME280;8505;49.456;8.164;2023-02-23T13:15:18;99429.84;;;15.10;58.71
16777;BME280;8505;49.456;8.164;2023-02-23T13:17:55;99437.03;;;15.16;59.43
16777;BME280;8505;49.456;8.164;2023-02-23T13:20:29;99435.38;;;15.21;58.59
16777;BME280;8505;49.456;8.164;2023-02-23T13:23:07;99434.13;;;15.30;57.26
16777;BME280;8505;49.456;8.164;2023-02-23T13:26:04;99439.91;;;14.94;59.13
16777;BME280;8505;49.456;8.164;2023-02-23T13:28:45;99433.94;;;15.12;59.15
16777;BME280;8505;49.456;8.164;2023-02-23T13:31:21;99430.66;;;15.23;58.44
16777;BME280;8505;49.456;8.164;2023-02-23T13:33:51;99425.38;;;14.64;60.19
16777;BME280;8505;49.456;8.164;2023-02-23T13:36:19;99428.66;;;14.73;60.75
16777;BME280;8505;49.456;8.164;2023-02-23T13:39:01;99427.00;;;14.91;60.11
16777;BME280;8505;49.456;8.164;2023-02-23T13:41:49;99426.00;;;14.79;60.96
16777;BME280;8505;49.456;8.164;2023-02-23T13:44:26;99425.78;;;14.68;60.58
16777;BME280;8505;49.456;8.164;2023-02-23T13:46:59;99429.47;;;14.47;61.52
16777;BME280;8505;49.456;8.164;2023-02-23T13:49:36;99428.66;;;14.46;60.72
16777;BME280;8505;49.456;8.164;2023-02-23T13:52:13;99431.94;;;14.42;61.68